createdAt,value
2023-03-21T00:00:29.157Z,19.88
2023-03-21T00:02:55.905Z,18.63
2023-03-21T00:05:22.915Z,19.13
2023-03-21T00:07:49.449Z,18.40
2023-03-21T00:10:23.951Z,18.20
2023-03-21T00:12:56.558Z,18.35
2023-03-21T00:15:27.561Z,18.02
2023-03-21T00:17:57.706Z,17.88
2023-03-21T00:20:24.476Z,18.10
2023-03-21T00:22:51.026Z,19.33
2023-03-21T00:25:17.691Z,19.08
2023-03-21T00:28:00.972Z,19.42
2023-03-21T00:30:30.857Z,19.80
2023-03-21T00:32:58.477Z,20.23
2023-03-21T00:35:57.996Z,22.15
2023-03-21T00:38:15.231Z,22.52
2023-03-21T00:40:48.776Z,22.45
2023-03-21T00:43:17.210Z,25.65
2023-03-21T00:45:45.341Z,30.30
2023-03-21T00:48:12.602Z,30.85
2023-03-21T00:50:40.118Z,33.88
2023-03-21T00:53:07.201Z,31.67
2023-03-21T00:55:34.186Z,31.70
2023-03-21T00:58:02.401Z,30.57
2023-03-21T01:00:29.897Z,31.67
2023-03-21T01:03:04.458Z,31.27
2023-03-21T01:05:40.469Z,30.58
2023-03-21T01:08:20.669Z,31.13
2023-03-21T01:10:51.808Z,30.90
2023-03-21T01:13:20.898Z,30.98
2023-03-21T01:15:54.848Z,29.83
2023-03-21T01:18:26.029Z,28.60
2023-03-21T01:20:54.222Z,25.60
2023-03-21T01:23:20.926Z,23.83
2023-03-21T01:25:49.496Z,23.42
2023-03-21T01:28:16.447Z,24.50
2023-03-21T01:30:47.934Z,63.10
2023-03-21T01:33:15.083Z,48.28
2023-03-21T01:35:50.485Z,22.30
2023-03-21T01:38:21.900Z,21.02
2023-03-21T01:40:49.848Z,17.85
2023-03-21T01:43:34.951Z,18.67
2023-03-21T01:46:20.819Z,18.75
2023-03-21T01:49:02.502Z,17.40
2023-03-21T01:51:32.334Z,15.18
2023-03-21T01:53:59.150Z,17.67
2023-03-21T01:56:32.877Z,15.52
2023-03-21T01:59:07.814Z,15.63
2023-03-21T02:01:34.621Z,15.57
2023-03-21T02:04:02.182Z,15.68
2023-03-21T02:06:36.593Z,15.15
2023-03-21T02:09:09.906Z,16.83
2023-03-21T02:11:37.985Z,16.40
2023-03-21T02:14:07.065Z,16.03
2023-03-21T02:16:43.125Z,16.58
2023-03-21T02:19:53.769Z,16.58
2023-03-21T02:22:41.628Z,16.75
2023-03-21T02:25:21.764Z,16.48
2023-03-21T02:28:21.729Z,16.53
2023-03-21T02:31:24.738Z,16.55
2023-03-21T02:34:13.248Z,16.85
2023-03-21T02:37:00.660Z,16.33
2023-03-21T02:39:56.131Z,20.85
2023-03-21T02:42:59.492Z,18.53
2023-03-21T02:45:34.494Z,19.20
2023-03-21T02:48:07.016Z,18.08
2023-03-21T02:50:33.695Z,19.83
2023-03-21T02:53:07.204Z,19.90
2023-03-21T02:55:36.614Z,18.47
2023-03-21T02:58:13.304Z,18.45
2023-03-21T03:00:40.452Z,17.52
2023-03-21T03:03:10.470Z,17.73
2023-03-21T03:05:47.168Z,17.88
2023-03-21T03:09:01.483Z,16.80
2023-03-21T03:11:33.180Z,17.85
2023-03-21T03:17:30.596Z,23.05
2023-03-21T03:20:22.176Z,22.17
2023-03-21T03:22:54.831Z,20.40
2023-03-21T03:25:41.517Z,22.73
2023-03-21T03:28:11.333Z,24.05
2023-03-21T03:30:46.555Z,20.10
2023-03-21T03:33:19.877Z,19.65
2023-03-21T03:35:55.756Z,19.63
2023-03-21T03:38:27.365Z,19.05
2023-03-21T03:41:02.391Z,19.10
2023-03-21T03:43:41.419Z,19.80
2023-03-21T03:46:17.942Z,18.83
2023-03-21T03:49:07.914Z,18.93
2023-03-21T03:51:52.486Z,18.25
2023-03-21T03:54:37.036Z,18.95
2023-03-21T03:57:05.582Z,18.27
2023-03-21T03:59:35.780Z,20.08
2023-03-21T04:02:02.525Z,19.73
2023-03-21T04:04:29.174Z,20.55
2023-03-21T04:06:57.981Z,22.90
2023-03-21T04:09:37.442Z,22.42
2023-03-21T04:12:10.101Z,23.08
2023-03-21T04:14:44.359Z,22.07
2023-03-21T04:17:11.562Z,20.85
2023-03-21T04:19:38.367Z,19.58
2023-03-21T04:22:04.858Z,21.67
2023-03-21T04:24:31.562Z,20.95
2023-03-21T04:26:58.093Z,22.67
2023-03-21T04:29:24.602Z,22.27
2023-03-21T04:31:51.186Z,22.83
2023-03-21T04:34:17.719Z,22.13
2023-03-21T04:36:44.299Z,19.23
2023-03-21T04:39:10.984Z,19.80
2023-03-21T04:41:38.970Z,19.65
2023-03-21T04:44:05.862Z,19.73
2023-03-21T04:46:32.752Z,20.92
2023-03-21T04:48:59.603Z,21.35
2023-03-21T04:51:26.357Z,21.00
2023-03-21T04:53:53.043Z,21.27
2023-03-21T04:56:19.534Z,19.25
2023-03-21T04:58:46.041Z,19.48
2023-03-21T05:01:12.640Z,20.00
2023-03-21T05:03:40.502Z,23.10
2023-03-21T05:06:08.516Z,25.55
2023-03-21T05:08:38.071Z,24.85
2023-03-21T05:11:05.568Z,22.00
2023-03-21T05:13:32.102Z,22.27
2023-03-21T05:15:58.671Z,20.60
2023-03-21T05:18:25.415Z,20.33
2023-03-21T05:20:53.537Z,21.40
2023-03-21T05:23:21.386Z,20.52
2023-03-21T05:25:48.208Z,20.67
2023-03-21T05:28:14.835Z,20.60
2023-03-21T05:30:41.568Z,21.55
2023-03-21T05:33:08.165Z,22.55
2023-03-21T05:35:34.946Z,23.10
2023-03-21T05:38:01.758Z,27.48
2023-03-21T05:40:28.267Z,23.53
2023-03-21T05:42:54.928Z,23.75
2023-03-21T05:45:21.480Z,22.88
2023-03-21T05:47:48.009Z,21.95
2023-03-21T05:50:14.869Z,22.88
2023-03-21T05:52:41.430Z,22.60
2023-03-21T05:55:08.535Z,22.80
2023-03-21T05:57:35.211Z,23.00
2023-03-21T06:00:02.094Z,22.80
2023-03-21T06:02:28.858Z,23.42
2023-03-21T06:04:55.427Z,22.77
2023-03-21T06:07:21.933Z,22.73
2023-03-21T06:09:48.572Z,22.73
2023-03-21T06:12:15.240Z,24.20
2023-03-21T06:14:41.826Z,23.13
2023-03-21T06:17:08.390Z,24.27
2023-03-21T06:19:34.989Z,23.52
2023-03-21T06:22:01.527Z,23.70
2023-03-21T06:24:28.080Z,23.25
2023-03-21T06:26:54.620Z,23.52
2023-03-21T06:29:21.355Z,21.83
2023-03-21T06:31:48.085Z,21.42
2023-03-21T06:34:14.814Z,25.23
2023-03-21T06:36:41.393Z,26.45
2023-03-21T06:39:10.737Z,22.88
2023-03-21T06:41:37.659Z,25.60
2023-03-21T06:44:08.080Z,25.52
2023-03-21T06:46:35.701Z,24.27
2023-03-21T06:49:04.216Z,24.02
2023-03-21T06:51:32.550Z,25.00
2023-03-21T06:53:59.624Z,23.97
2023-03-21T06:56:26.251Z,23.83
2023-03-21T06:58:52.820Z,23.13
2023-03-21T07:01:19.503Z,22.23
2023-03-21T07:03:46.023Z,22.02
2023-03-21T07:06:12.730Z,22.40
2023-03-21T07:08:41.359Z,23.15
2023-03-21T07:11:09.567Z,23.83
2023-03-21T07:13:36.631Z,21.08
2023-03-21T07:16:03.792Z,20.02
2023-03-21T07:18:30.491Z,21.47
2023-03-21T07:20:57.684Z,21.40
2023-03-21T07:23:28.234Z,21.15
2023-03-21T07:25:55.096Z,21.83
2023-03-21T07:28:23.058Z,22.77
2023-03-21T07:30:55.777Z,20.77
2023-03-21T07:33:22.934Z,20.45
2023-03-21T07:35:51.184Z,21.40
2023-03-21T07:38:18.350Z,21.00
2023-03-21T07:40:46.464Z,21.52
2023-03-21T07:43:13.197Z,21.13
2023-03-21T07:45:40.235Z,22.63
2023-03-21T07:48:07.187Z,20.73
2023-03-21T07:50:33.837Z,20.70
2023-03-21T07:53:03.190Z,20.92
2023-03-21T07:55:29.787Z,20.87
2023-03-21T07:57:56.302Z,20.17
2023-03-21T08:00:23.390Z,20.73
2023-03-21T08:02:58.728Z,19.83
2023-03-21T08:05:33.180Z,19.00
2023-03-21T08:07:59.922Z,19.83
2023-03-21T08:10:27.025Z,19.00
2023-03-21T08:12:54.212Z,19.30
2023-03-21T08:15:20.963Z,20.15
2023-03-21T08:17:47.591Z,20.58
2023-03-21T08:20:18.135Z,19.63
2023-03-21T08:22:45.064Z,20.15
2023-03-21T08:25:13.323Z,18.83
2023-03-21T08:27:44.123Z,19.35
2023-03-21T08:30:12.582Z,19.58
2023-03-21T08:32:40.237Z,19.23
2023-03-21T08:35:08.873Z,18.92
2023-03-21T08:37:36.649Z,19.10
2023-03-21T08:40:05.302Z,19.25
2023-03-21T08:42:31.866Z,17.60
2023-03-21T08:44:58.436Z,18.17
2023-03-21T08:47:24.983Z,17.60
2023-03-21T08:49:51.732Z,16.73
2023-03-21T08:52:21.309Z,16.60
2023-03-21T08:54:48.786Z,17.75
2023-03-21T08:57:18.800Z,18.17
2023-03-21T08:59:46.110Z,16.95
2023-03-21T09:02:17.153Z,15.65
2023-03-21T09:04:44.525Z,16.05
2023-03-21T09:07:12.349Z,16.42
2023-03-21T09:09:39.357Z,15.43
2023-03-21T09:12:06.164Z,16.25
2023-03-21T09:14:33.187Z,16.65
2023-03-21T09:16:59.724Z,16.27
2023-03-21T09:19:26.356Z,14.90
2023-03-21T09:21:52.964Z,16.00
2023-03-21T09:24:20.371Z,14.82
2023-03-21T09:26:47.270Z,15.30
2023-03-21T09:29:13.966Z,13.68
2023-03-21T09:31:40.664Z,13.07
2023-03-21T09:34:07.269Z,13.90
2023-03-21T09:36:33.923Z,13.68
2023-03-21T09:39:00.972Z,14.40
2023-03-21T09:41:32.385Z,13.88
2023-03-21T09:44:34.338Z,13.88
2023-03-21T09:47:23.853Z,13.17
2023-03-21T09:50:13.679Z,13.30
2023-03-21T09:52:50.126Z,11.38
2023-03-21T09:55:26.363Z,11.80
2023-03-21T09:58:21.681Z,12.23
2023-03-21T10:00:57.605Z,10.53
2023-03-21T10:03:29.022Z,11.00
2023-03-21T10:05:59.410Z,10.35
2023-03-21T10:08:30.023Z,11.50
2023-03-21T10:11:07.044Z,10.27
2023-03-21T10:13:39.378Z,10.33
2023-03-21T10:16:27.638Z,10.55
2023-03-21T10:18:55.277Z,9.45
2023-03-21T10:21:51.276Z,9.35
2023-03-21T10:24:13.833Z,10.27
2023-03-21T10:26:42.909Z,9.00
2023-03-21T10:29:17.217Z,9.55
2023-03-21T10:31:47.475Z,10.82
2023-03-21T10:34:44.755Z,9.73
2023-03-21T10:37:14.360Z,9.63
2023-03-21T10:39:49.499Z,9.23
2023-03-21T10:42:22.441Z,9.55
2023-03-21T10:44:50.884Z,9.75
2023-03-21T10:47:27.175Z,9.32
2023-03-21T10:50:11.285Z,9.43
2023-03-21T10:52:49.559Z,8.93
2023-03-21T10:55:19.077Z,9.52
2023-03-21T10:57:47.383Z,8.82
2023-03-21T11:00:21.536Z,8.95
2023-03-21T11:02:50.998Z,8.52
2023-03-21T11:05:25.542Z,9.00
2023-03-21T11:08:11.866Z,9.05
2023-03-21T11:10:52.525Z,8.38
2023-03-21T11:13:41.471Z,8.20
2023-03-21T11:16:32.060Z,8.18
2023-03-21T11:19:04.665Z,8.67
2023-03-21T11:21:39.177Z,8.57
2023-03-21T11:24:07.622Z,8.90
2023-03-21T11:26:37.656Z,9.15
2023-03-21T11:29:38.515Z,8.60
2023-03-21T11:32:26.190Z,8.33
2023-03-21T11:35:22.054Z,8.32
2023-03-21T11:37:54.911Z,8.10
2023-03-21T11:40:31.098Z,8.77
2023-03-21T11:43:18.411Z,9.63
2023-03-21T11:45:58.924Z,8.67
2023-03-21T11:48:25.941Z,8.30
2023-03-21T11:51:04.021Z,9.25
2023-03-21T11:53:40.196Z,8.57
2023-03-21T11:56:27.273Z,8.48
2023-03-21T11:59:07.596Z,8.07
2023-03-21T12:02:12.059Z,7.93
2023-03-21T12:04:41.848Z,7.53
2023-03-21T12:07:11.336Z,6.72
2023-03-21T12:09:51.705Z,7.40
2023-03-21T12:12:36.542Z,6.80
2023-03-21T12:15:19.993Z,7.18
2023-03-21T12:18:01.681Z,5.93
2023-03-21T12:20:39.305Z,6.75
2023-03-21T12:23:20.903Z,7.03
2023-03-21T12:26:03.646Z,7.37
2023-03-21T12:28:45.316Z,7.22
2023-03-21T12:31:35.014Z,6.82
2023-03-21T12:34:35.728Z,7.60
2023-03-21T12:37:05.149Z,7.13
2023-03-21T12:39:36.300Z,8.23
2023-03-21T12:42:40.048Z,8.23
2023-03-21T12:45:24.686Z,8.60
2023-03-21T12:48:14.445Z,8.25
2023-03-21T12:50:41.601Z,8.40
2023-03-21T12:53:32.742Z,8.53
2023-03-21T12:56:05.126Z,8.23
2023-03-21T12:58:43.024Z,6.95
2023-03-21T13:01:11.879Z,7.18
2023-03-21T13:03:42.574Z,7.68
2023-03-21T13:06:21.042Z,7.33
2023-03-21T13:09:18.114Z,7.57
2023-03-21T13:11:47.980Z,8.30
2023-03-21T13:14:22.875Z,7.13
2023-03-21T13:16:53.364Z,7.70
2023-03-21T13:19:38.644Z,8.13
2023-03-21T13:22:10.790Z,7.70
2023-03-21T13:25:09.419Z,7.47
2023-03-21T13:27:38.570Z,10.10
2023-03-21T13:30:14.380Z,8.32
2023-03-21T13:32:43.942Z,8.60
2023-03-21T13:35:18.721Z,8.23
2023-03-21T13:37:57.132Z,7.93
2023-03-21T13:40:35.083Z,7.97
2023-03-21T13:43:02.038Z,7.68
2023-03-21T13:45:52.129Z,7.13
2023-03-21T13:48:30.878Z,7.88
2023-03-21T13:51:03.237Z,7.43
2023-03-21T13:53:37.496Z,8.10
2023-03-21T13:56:14.660Z,8.07
2023-03-21T13:58:44.045Z,8.00
2023-03-21T14:01:10.608Z,8.18
2023-03-21T14:03:38.048Z,8.27
2023-03-21T14:06:05.996Z,7.93
2023-03-21T14:08:38.514Z,8.10
2023-03-21T14:11:09.310Z,8.27
2023-03-21T14:13:48.370Z,8.38
2023-03-21T14:16:18.857Z,7.75
2023-03-21T14:18:56.231Z,8.07
2023-03-21T14:21:29.211Z,7.22
2023-03-21T14:24:07.386Z,7.90
2023-03-21T14:26:42.198Z,7.25
2023-03-21T14:29:25.026Z,8.15
2023-03-21T14:31:54.566Z,7.80
2023-03-21T14:34:22.995Z,8.23
2023-03-21T14:36:57.506Z,7.83
2023-03-21T14:39:30.997Z,7.53
2023-03-21T14:42:04.102Z,6.80
2023-03-21T14:44:44.140Z,7.18
2023-03-21T14:47:24.804Z,8.05
2023-03-21T14:49:52.005Z,7.23
2023-03-21T14:52:37.095Z,7.93
2023-03-21T14:55:14.963Z,8.00
2023-03-21T14:57:42.189Z,8.02
2023-03-21T15:00:23.726Z,7.75
2023-03-21T15:02:51.890Z,8.43
2023-03-21T15:05:32.325Z,8.48
2023-03-21T15:08:02.059Z,8.73
2023-03-21T15:10:30.938Z,8.63
2023-03-21T15:13:01.179Z,8.40
2023-03-21T15:15:31.884Z,8.63
2023-03-21T15:18:05.140Z,9.40
2023-03-21T15:20:35.505Z,7.82
2023-03-21T15:23:07.064Z,7.95
2023-03-21T15:25:36.104Z,8.88
2023-03-21T15:28:05.389Z,8.57
2023-03-21T15:30:33.008Z,8.85
2023-03-21T15:33:07.721Z,7.85
2023-03-21T15:35:46.124Z,7.93
2023-03-21T15:38:40.818Z,7.50
2023-03-21T15:41:25.145Z,7.90
2023-03-21T15:44:10.337Z,7.88
2023-03-21T15:46:46.427Z,8.07
2023-03-21T15:49:12.923Z,7.50
2023-03-21T15:51:41.925Z,8.27
2023-03-21T15:54:17.799Z,8.07
2023-03-21T15:56:44.755Z,8.15
2023-03-21T15:59:16.309Z,9.07
2023-03-21T16:01:47.521Z,8.13
2023-03-21T16:04:14.519Z,8.40
2023-03-21T16:07:13.338Z,8.40
2023-03-21T16:09:48.321Z,8.68
2023-03-21T16:12:17.498Z,9.10
2023-03-21T16:14:45.254Z,8.88
2023-03-21T16:17:38.122Z,8.93
2023-03-21T16:20:17.828Z,9.47
2023-03-21T16:22:44.405Z,8.68
2023-03-21T16:25:12.135Z,9.10
2023-03-21T16:27:38.969Z,8.88
2023-03-21T16:30:06.741Z,8.00
2023-03-21T16:32:33.760Z,9.03
2023-03-21T16:35:01.234Z,8.88
2023-03-21T16:37:27.812Z,8.63
2023-03-21T16:39:54.440Z,7.70
2023-03-21T16:42:20.991Z,7.78
2023-03-21T16:44:47.558Z,7.93
2023-03-21T16:47:19.495Z,7.78
2023-03-21T16:49:46.993Z,8.02
2023-03-21T16:52:14.590Z,7.30
2023-03-21T16:54:42.048Z,8.18
2023-03-21T16:57:21.097Z,7.67
2023-03-21T16:59:47.724Z,7.38
2023-03-21T17:02:15.699Z,7.97
2023-03-21T17:04:42.580Z,8.00
2023-03-21T17:07:15.171Z,7.60
2023-03-21T17:09:43.234Z,8.13
2023-03-21T17:12:15.687Z,7.60
2023-03-21T17:14:44.541Z,8.32
2023-03-21T17:17:13.121Z,7.75
2023-03-21T17:19:43.613Z,7.32
2023-03-21T17:22:12.571Z,7.33
2023-03-21T17:24:40.870Z,7.22
2023-03-21T17:27:11.458Z,6.70
2023-03-21T17:29:38.229Z,5.90
2023-03-21T17:32:05.008Z,6.07
2023-03-21T17:34:31.630Z,6.20
2023-03-21T17:36:59.004Z,5.50
2023-03-21T17:39:27.103Z,5.60
2023-03-21T17:41:54.437Z,6.07
2023-03-21T17:44:21.078Z,6.70
2023-03-21T17:46:50.309Z,6.67
2023-03-21T17:49:18.117Z,6.35
2023-03-21T17:51:44.636Z,6.18
2023-03-21T17:54:11.128Z,7.10
2023-03-21T17:56:37.694Z,6.90
2023-03-21T17:59:07.173Z,6.10
2023-03-21T18:01:34.728Z,6.38
2023-03-21T18:04:04.082Z,5.80
2023-03-21T18:06:32.840Z,5.88
2023-03-21T18:09:00.456Z,5.65
2023-03-21T18:11:27.580Z,6.00
2023-03-21T18:14:06.556Z,6.95
2023-03-21T18:16:40.774Z,6.43
2023-03-21T18:19:07.333Z,7.25
2023-03-21T18:21:35.776Z,6.95
2023-03-21T18:24:02.466Z,6.60
2023-03-21T18:26:31.103Z,6.85
2023-03-21T18:29:57.017Z,7.13
2023-03-21T18:32:05.093Z,7.85
2023-03-21T18:34:33.073Z,7.57
2023-03-21T18:36:59.757Z,8.07
2023-03-21T18:39:30.193Z,7.97
2023-03-21T18:41:58.016Z,7.85
2023-03-21T18:44:25.053Z,7.72
2023-03-21T18:46:52.303Z,7.95
2023-03-21T18:50:02.114Z,8.53
2023-03-21T18:52:06.080Z,8.05
2023-03-21T18:54:32.738Z,8.20
2023-03-21T18:57:34.607Z,8.95
2023-03-21T18:59:48.137Z,9.18
2023-03-21T19:02:15.238Z,10.43
2023-03-21T19:04:45.082Z,9.88
2023-03-21T19:07:12.115Z,9.88
2023-03-21T19:10:05.198Z,9.45
2023-03-21T19:12:28.122Z,8.68
2023-03-21T19:14:55.247Z,8.53
2023-03-21T19:18:26.157Z,8.27
2023-03-21T19:20:11.526Z,7.95
2023-03-21T19:22:38.128Z,8.30
2023-03-21T19:25:05.586Z,8.25
2023-03-21T19:27:38.291Z,7.43
2023-03-21T19:30:14.480Z,7.55
2023-03-21T19:32:42.943Z,7.38
2023-03-21T19:35:10.449Z,7.80
2023-03-21T19:37:37.011Z,7.63
2023-03-21T19:40:08.046Z,7.87
2023-03-21T19:42:34.745Z,8.15
2023-03-21T19:45:01.395Z,7.20
2023-03-21T19:47:27.959Z,7.10
2023-03-21T19:52:41.268Z,7.47
2023-03-21T19:55:08.384Z,8.57
2023-03-21T19:57:35.752Z,7.82
2023-03-21T20:00:02.436Z,8.80
2023-03-21T20:02:37.132Z,8.77
2023-03-21T20:05:05.902Z,8.90
2023-03-21T20:07:32.983Z,8.27
2023-03-21T20:10:00.247Z,8.13
2023-03-21T20:12:26.915Z,8.05
2023-03-21T20:15:01.010Z,8.65
2023-03-21T20:17:37.900Z,8.10
2023-03-21T20:20:04.869Z,8.02
2023-03-21T20:23:03.382Z,8.48
2023-03-21T20:25:21.628Z,8.27
2023-03-21T20:28:12.720Z,8.43
2023-03-21T20:30:49.419Z,7.17
2023-03-21T20:33:16.215Z,7.68
2023-03-21T20:38:30.048Z,6.93
2023-03-21T20:41:00.917Z,7.15
2023-03-21T20:46:15.808Z,6.07
2023-03-21T20:48:42.378Z,6.35
2023-03-21T20:54:00.813Z,5.80
2023-03-21T20:56:27.501Z,5.30
2023-03-21T20:59:17.695Z,5.28
2023-03-21T21:01:40.612Z,5.60
2023-03-21T21:04:07.216Z,4.70
2023-03-21T21:06:33.993Z,4.80
2023-03-21T21:09:00.642Z,5.23
2023-03-21T21:12:04.986Z,4.95
2023-03-21T21:14:17.972Z,5.65
2023-03-21T21:16:44.969Z,5.07
2023-03-21T21:19:11.670Z,4.90
2023-03-21T21:21:38.326Z,4.97
2023-03-21T21:24:07.504Z,4.97
2023-03-21T21:26:35.203Z,5.20
2023-03-21T21:29:01.845Z,4.70
2023-03-21T21:31:28.529Z,5.20
2023-03-21T21:33:55.126Z,4.80
2023-03-21T21:36:21.775Z,4.95
2023-03-21T21:38:48.439Z,4.82
2023-03-21T21:41:19.330Z,4.97
2023-03-21T21:43:46.654Z,4.68
2023-03-21T21:46:13.953Z,4.83
2023-03-21T21:48:41.920Z,4.88
2023-03-21T21:51:09.015Z,5.18
2023-03-21T21:53:36.251Z,4.80
2023-03-21T21:56:04.319Z,5.10
2023-03-21T21:58:30.882Z,4.77
2023-03-21T22:01:01.424Z,5.03
2023-03-21T22:03:28.181Z,4.60
2023-03-21T22:06:02.064Z,4.88
2023-03-21T22:08:28.656Z,5.20
2023-03-21T22:10:55.281Z,5.10
2023-03-21T22:13:21.972Z,4.28
2023-03-21T22:15:48.527Z,4.55
2023-03-21T22:18:15.085Z,4.68
2023-03-21T22:20:41.629Z,4.65
2023-03-21T22:23:08.176Z,4.27
2023-03-21T22:25:34.781Z,4.70
2023-03-21T22:28:01.311Z,4.18
2023-03-21T22:30:27.955Z,4.32
2023-03-21T22:33:08.565Z,3.97
2023-03-21T22:35:36.100Z,4.80
2023-03-21T22:38:02.794Z,4.50
2023-03-21T22:40:29.367Z,4.40
2023-03-21T22:42:55.864Z,4.30
2023-03-21T22:45:22.429Z,4.70
2023-03-21T22:47:49.016Z,4.33
2023-03-21T22:50:15.572Z,4.55
2023-03-21T22:52:42.099Z,4.35
2023-03-21T22:55:08.946Z,4.28
2023-03-21T22:57:35.699Z,4.85
2023-03-21T23:00:02.640Z,4.27
2023-03-21T23:02:29.191Z,4.28
2023-03-21T23:04:55.754Z,4.40
2023-03-21T23:07:22.346Z,4.15
2023-03-21T23:09:49.047Z,4.55
2023-03-21T23:12:15.666Z,5.27
2023-03-21T23:14:42.352Z,4.95
2023-03-21T23:17:08.924Z,5.03
2023-03-21T23:19:35.681Z,4.80
2023-03-21T23:22:02.214Z,4.72
2023-03-21T23:24:28.780Z,5.10
2023-03-21T23:26:55.409Z,4.85
2023-03-21T23:29:22.007Z,4.80
2023-03-21T23:31:48.622Z,4.88
2023-03-21T23:34:15.364Z,4.55
2023-03-21T23:36:42.032Z,5.30
2023-03-21T23:39:09.243Z,4.85
2023-03-21T23:41:35.835Z,4.82
2023-03-21T23:44:02.924Z,5.68
2023-03-21T23:46:29.516Z,5.18
2023-03-21T23:48:56.092Z,5.20
2023-03-21T23:51:22.939Z,5.35
2023-03-21T23:53:49.773Z,5.38
2023-03-21T23:56:21.598Z,5.57
2023-03-21T23:58:48.937Z,5.75
